Time;durP1;ratioP1;P1;durP2;ratioP2;P2;SDS_P1;SDS_P2;PMS_P1;PMS_P2;Temp;Humidity;BMP_temperature;BMP_pressure;BME280_temperature;BME280_humidity;BME280_pressure;Samples;Min_cycle;Max_cycle;Signal;HPM_P1;HPM_P2
2021/06/19 00:00:12;;;;;;;;;;;;;;;22.90;100.00;100630.00;4991636;28;19929;-66
2021/06/19 00:02:38;;;;;;;;;;;;;;;22.85;100.00;100619.56;4991635;28;19984;-66
2021/06/19 00:05:05;;;;;;;;;;;;;;;22.81;100.00;100621.03;4990934;28;20016;-66
2021/06/19 00:07:31;;;;;;;;;;;;;;;22.82;100.00;100614.44;4991509;28;20412;-66
2021/06/19 00:09:58;;;;;;;;;;;;;;;22.80;100.00;100624.88;4991454;28;20018;-66
2021/06/19 00:12:25;;;;;;;;;;;;;;;22.75;100.00;100621.84;4991513;28;20365;-66
2021/06/19 00:14:52;;;;;;;;;;;;;;;22.64;100.00;100625.25;4991732;28;19973;-66
2021/06/19 00:17:18;;;;;;;;;;;;;;;22.55;100.00;100622.66;4991493;28;19925;-66
2021/06/19 00:19:44;;;;;;;;;;;;;;;22.49;100.00;100615.19;4991655;28;19956;-67
2021/06/19 00:22:10;;;;;;;;;;;;;;;22.41;100.00;100618.13;4991169;28;19960;-67
2021/06/19 00:24:39;;;;;;;;;;;;;;;22.27;100.00;100627.38;4991269;28;19953;-67
2021/06/19 00:27:06;;;;;;;;;;;;;;;22.12;100.00;100620.06;5006200;28;19922;-67
2021/06/19 00:29:34;;;;;;;;;;;;;;;21.94;100.00;100622.47;4991338;28;19944;-67
2021/06/19 00:32:00;;;;;;;;;;;;;;;21.82;100.00;100614.78;4991284;28;19969;-67
2021/06/19 00:34:26;;;;;;;;;;;;;;;21.75;100.00;100624.91;4991067;28;20345;-67
2021/06/19 00:36:52;;;;;;;;;;;;;;;21.74;100.00;100624.06;4993315;28;20025;-67
2021/06/19 00:39:19;;;;;;;;;;;;;;;21.62;100.00;100619.28;4994844;28;19960;-67
2021/06/19 00:41:45;;;;;;;;;;;;;;;21.69;100.00;100621.03;4994562;28;20365;-68
2021/06/19 00:44:16;;;;;;;;;;;;;;;21.70;100.00;100616.34;4994535;28;19965;-67
2021/06/19 00:46:44;;;;;;;;;;;;;;;21.72;100.00;100617.03;4994717;28;19926;-67
2021/06/19 00:49:10;;;;;;;;;;;;;;;21.74;100.00;100612.16;4994766;28;19971;-68
2021/06/19 00:51:36;;;;;;;;;;;;;;;21.77;100.00;100611.75;4994387;28;19922;-67
2021/06/19 00:54:04;;;;;;;;;;;;;;;21.78;100.00;100601.56;4994952;28;20362;-67
2021/06/19 00:56:32;;;;;;;;;;;;;;;21.68;100.00;100597.22;4995092;28;19921;-67
2021/06/19 00:58:58;;;;;;;;;;;;;;;21.53;100.00;100604.75;5009668;28;20036;-67
2021/06/19 01:01:24;;;;;;;;;;;;;;;21.35;100.00;100606.09;4994516;28;19971;-67
2021/06/19 01:03:52;;;;;;;;;;;;;;;21.14;100.00;100609.72;4994245;28;20350;-67
2021/06/19 01:06:18;;;;;;;;;;;;;;;21.09;100.00;100619.63;4994447;28;19922;-66
2021/06/19 01:08:44;;;;;;;;;;;;;;;21.01;100.00;100620.59;4994666;28;20337;-66
2021/06/19 01:11:11;;;;;;;;;;;;;;;20.87;100.00;100617.72;4994288;28;19922;-66
2021/06/19 01:13:37;;;;;;;;;;;;;;;20.73;100.00;100611.16;4993097;28;20381;-66
2021/06/19 01:16:03;;;;;;;;;;;;;;;20.62;100.00;100611.66;4994354;28;19972;-67
2021/06/19 01:18:30;;;;;;;;;;;;;;;20.51;100.00;100601.97;4994271;28;20489;-67
2021/06/19 01:20:57;;;;;;;;;;;;;;;20.45;100.00;100608.25;4994181;28;19976;-67
2021/06/19 01:23:24;;;;;;;;;;;;;;;20.36;100.00;100603.91;4994275;28;20354;-67
2021/06/19 01:25:51;;;;;;;;;;;;;;;20.26;100.00;100595.94;4994148;28;19953;-67
2021/06/19 01:28:17;;;;;;;;;;;;;;;20.14;100.00;100603.81;4993850;28;19940;-66
2021/06/19 01:30:44;;;;;;;;;;;;;;;20.07;100.00;100605.66;5009353;28;19988;-66
2021/06/19 01:33:10;;;;;;;;;;;;;;;19.96;100.00;100604.19;4993616;28;19929;-67
2021/06/19 01:35:37;;;;;;;;;;;;;;;19.87;100.00;100605.34;4993975;28;19929;-67
2021/06/19 01:38:05;;;;;;;;;;;;;;;19.79;100.00;100603.50;4994077;28;19922;-67
2021/06/19 01:40:32;;;;;;;;;;;;;;;19.73;100.00;100610.63;4992175;28;19926;-67
2021/06/19 01:42:59;;;;;;;;;;;;;;;19.66;100.00;100598.63;4993719;28;19957;-67
2021/06/19 01:45:27;;;;;;;;;;;;;;;19.56;100.00;100604.41;4993381;28;19956;-67
2021/06/19 01:47:54;;;;;;;;;;;;;;;19.49;100.00;100602.59;4993667;28;19957;-67
2021/06/19 01:50:21;;;;;;;;;;;;;;;19.47;100.00;100607.41;4993720;28;20348;-67
2021/06/19 01:52:48;;;;;;;;;;;;;;;19.46;100.00;100608.47;4993495;28;19953;-67
2021/06/19 01:55:15;;;;;;;;;;;;;;;19.44;100.00;100607.81;4993442;28;19961;-67
2021/06/19 01:57:41;;;;;;;;;;;;;;;19.41;100.00;100614.53;4993119;28;19922;-67
2021/06/19 02:00:10;;;;;;;;;;;;;;;19.34;100.00;100610.81;4993434;28;19921;-67
2021/06/19 02:02:37;;;;;;;;;;;;;;;19.27;100.00;100607.06;4993547;28;19921;-67
2021/06/19 02:05:04;;;;;;;;;;;;;;;19.20;100.00;100599.56;4993015;28;19976;-67
2021/06/19 02:07:32;;;;;;;;;;;;;;;19.12;100.00;100598.78;4993532;28;19956;-67
2021/06/19 02:09:58;;;;;;;;;;;;;;;19.03;100.00;100585.09;4993188;28;20432;-67
2021/06/19 02:12:24;;;;;;;;;;;;;;;18.99;100.00;100578.25;4993226;28;19952;-67
2021/06/19 02:14:50;;;;;;;;;;;;;;;18.92;100.00;100580.03;4992986;28;19945;-67
2021/06/19 02:17:18;;;;;;;;;;;;;;;18.94;100.00;100582.59;4993009;28;19968;-67
2021/06/19 02:19:44;;;;;;;;;;;;;;;18.96;100.00;100586.00;4993270;28;19953;-67
2021/06/19 02:22:11;;;;;;;;;;;;;;;18.94;100.00;100590.84;4992731;28;19926;-67
2021/06/19 02:24:37;;;;;;;;;;;;;;;18.95;100.00;100585.16;4993018;28;19964;-67
2021/06/19 02:27:10;;;;;;;;;;;;;;;18.94;100.00;100593.59;4992637;28;19928;-67
2021/06/19 02:29:37;;;;;;;;;;;;;;;18.93;100.00;100581.72;4993425;28;20389;-67
2021/06/19 02:32:03;;;;;;;;;;;;;;;18.90;100.00;100582.94;4992654;28;19968;-67
2021/06/19 02:34:31;;;;;;;;;;;;;;;18.86;100.00;100583.47;5007914;28;19952;-67
2021/06/19 02:36:57;;;;;;;;;;;;;;;18.83;100.00;100589.34;4992990;28;19961;-67
2021/06/19 02:39:24;;;;;;;;;;;;;;;18.78;100.00;100600.03;4992531;28;20443;-67
2021/06/19 02:41:50;;;;;;;;;;;;;;;18.73;100.00;100603.31;4992726;28;20436;-68
2021/06/19 02:44:16;;;;;;;;;;;;;;;18.67;100.00;100604.06;4992623;28;19953;-66
2021/06/19 02:46:43;;;;;;;;;;;;;;;18.60;100.00;100598.41;4992664;28;20017;-67
2021/06/19 02:49:09;;;;;;;;;;;;;;;18.60;100.00;100603.91;4992214;28;19967;-67
2021/06/19 02:51:37;;;;;;;;;;;;;;;18.66;100.00;100608.66;4992217;28;20361;-67
2021/06/19 02:54:03;;;;;;;;;;;;;;;18.69;100.00;100600.09;4992486;28;19949;-67
2021/06/19 02:56:29;;;;;;;;;;;;;;;18.73;100.00;100608.81;4992572;28;20011;-67
2021/06/19 02:58:55;;;;;;;;;;;;;;;18.74;100.00;100611.38;4992175;28;20439;-67
2021/06/19 03:01:22;;;;;;;;;;;;;;;18.74;100.00;100610.53;4991709;28;20365;-67
2021/06/19 03:03:48;;;;;;;;;;;;;;;18.75;100.00;100609.50;4992362;28;19964;-67
2021/06/19 03:06:14;;;;;;;;;;;;;;;18.71;100.00;100605.41;4992239;28;19922;-67
2021/06/19 03:08:42;;;;;;;;;;;;;;;18.66;100.00;100608.66;4992079;28;20270;-67
2021/06/19 03:11:09;;;;;;;;;;;;;;;18.66;100.00;100607.81;4992076;28;19964;-68
2021/06/19 03:13:35;;;;;;;;;;;;;;;18.67;100.00;100606.81;4992216;28;19925;-69
2021/06/19 03:16:02;;;;;;;;;;;;;;;18.68;100.00;100603.00;4991879;28;20412;-68
2021/06/19 03:18:28;;;;;;;;;;;;;;;18.69;100.00;100597.34;4992238;28;19970;-68
2021/06/19 03:20:54;;;;;;;;;;;;;;;18.71;100.00;100602.66;4992346;28;19922;-68
2021/06/19 03:23:20;;;;;;;;;;;;;;;18.74;100.00;100597.63;4992091;28;19989;-68
2021/06/19 03:25:48;;;;;;;;;;;;;;;18.79;100.00;100590.75;4991902;28;20367;-68
2021/06/19 03:28:15;;;;;;;;;;;;;;;18.83;100.00;100603.94;4991618;28;19984;-68
2021/06/19 03:30:44;;;;;;;;;;;;;;;18.90;100.00;100596.69;4992564;28;20352;-68
2021/06/19 03:33:11;;;;;;;;;;;;;;;18.96;100.00;100591.50;5001932;28;19922;-68
2021/06/19 03:35:37;;;;;;;;;;;;;;;19.04;100.00;100600.56;4991703;28;19976;-68
2021/06/19 03:38:05;;;;;;;;;;;;;;;19.12;100.00;100601.53;4992041;28;19922;-68
2021/06/19 03:40:32;;;;;;;;;;;;;;;19.21;100.00;100598.53;4991618;28;20020;-68
2021/06/19 03:43:00;;;;;;;;;;;;;;;19.30;100.00;100603.97;4994658;28;19979;-68
2021/06/19 03:45:27;;;;;;;;;;;;;;;19.37;100.00;100593.94;5010716;28;19984;-68
2021/06/19 03:47:54;;;;;;;;;;;;;;;19.46;100.00;100601.06;4996415;28;19921;-68
2021/06/19 03:50:22;;;;;;;;;;;;;;;19.55;100.00;100591.69;5009860;28;20015;-68
2021/06/19 03:52:48;;;;;;;;;;;;;;;19.64;100.00;100594.34;4998355;28;19984;-68
2021/06/19 03:55:14;;;;;;;;;;;;;;;19.76;100.00;100605.78;5001493;28;19957;-68
2021/06/19 03:57:41;;;;;;;;;;;;;;;19.91;100.00;100612.19;4999749;28;19973;-69
2021/06/19 04:00:10;;;;;;;;;;;;;;;20.11;100.00;100612.47;4992659;28;20381;-69
2021/06/19 04:02:40;;;;;;;;;;;;;;;20.26;100.00;100603.31;4992552;28;20343;-70
2021/06/19 04:05:06;;;;;;;;;;;;;;;20.33;100.00;100601.53;4996377;28;19984;-70
2021/06/19 04:07:33;;;;;;;;;;;;;;;20.41;100.00;100604.19;5011202;28;20008;-69
2021/06/19 04:09:59;;;;;;;;;;;;;;;20.52;100.00;100606.47;5003063;28;20346;-69
2021/06/19 04:12:25;;;;;;;;;;;;;;;20.66;100.00;100606.63;4994401;28;19922;-69
2021/06/19 04:14:52;;;;;;;;;;;;;;;20.82;100.00;100602.81;4997233;28;19976;-69
2021/06/19 04:17:19;;;;;;;;;;;;;;;21.04;100.00;100596.22;5003585;28;20024;-69
2021/06/19 04:19:46;;;;;;;;;;;;;;;21.31;100.00;100598.38;5006233;28;20164;-69
2021/06/19 04:22:13;;;;;;;;;;;;;;;21.53;100.00;100599.22;5000854;28;19980;-69
2021/06/19 04:24:40;;;;;;;;;;;;;;;21.71;100.00;100595.97;5004894;28;19977;-69
2021/06/19 04:27:11;;;;;;;;;;;;;;;21.86;100.00;100591.22;4985517;28;20352;-69
2021/06/19 04:29:38;;;;;;;;;;;;;;;22.02;100.00;100590.03;4990490;28;19922;-69
2021/06/19 04:32:05;;;;;;;;;;;;;;;22.14;100.00;100590.31;4979586;28;20027;-69
2021/06/19 04:34:33;;;;;;;;;;;;;;;22.26;100.00;100586.97;5006608;28;19922;-69
2021/06/19 04:36:59;;;;;;;;;;;;;;;22.35;100.00;100588.53;5010067;28;19969;-69
2021/06/19 04:39:26;;;;;;;;;;;;;;;22.44;100.00;100591.97;4995152;28;19985;-70
2021/06/19 04:41:54;;;;;;;;;;;;;;;22.54;100.00;100595.19;5003537;28;19922;-69
2021/06/19 04:44:28;;;;;;;;;;;;;;;22.61;100.00;100595.22;5006338;28;19929;-70
2021/06/19 04:46:55;;;;;;;;;;;;;;;22.72;100.00;100586.31;4994143;28;19922;-69
2021/06/19 04:49:21;;;;;;;;;;;;;;;22.82;100.00;100581.25;5005630;28;20393;-69
2021/06/19 04:51:49;;;;;;;;;;;;;;;22.94;100.00;100580.63;4995204;28;19975;-70
2021/06/19 04:54:16;;;;;;;;;;;;;;;23.05;100.00;100574.47;4998783;28;19925;-70
2021/06/19 04:56:42;;;;;;;;;;;;;;;23.17;100.00;100575.59;5014337;28;20408;-71
2021/06/19 04:59:09;;;;;;;;;;;;;;;23.30;100.00;100571.13;5012924;28;20916;-70
2021/06/19 05:01:35;;;;;;;;;;;;;;;23.43;100.00;100573.88;5013798;28;20055;-70
2021/06/19 05:04:02;;;;;;;;;;;;;;;23.54;100.00;100567.72;5014171;28;20318;-70
2021/06/19 05:06:28;;;;;;;;;;;;;;;23.70;100.00;100565.53;5013996;28;19972;-70
2021/06/19 05:08:56;;;;;;;;;;;;;;;23.76;100.00;100570.22;5014274;28;19988;-70
2021/06/19 05:11:22;;;;;;;;;;;;;;;23.89;100.00;100583.22;5012602;28;19969;-69
2021/06/19 05:13:48;;;;;;;;;;;;;;;23.98;100.00;100578.31;5013951;28;20359;-71
2021/06/19 05:16:15;;;;;;;;;;;;;;;24.06;100.00;100580.84;5013466;28;19965;-70
2021/06/19 05:18:41;;;;;;;;;;;;;;;24.13;100.00;100592.78;5029321;28;19926;-70
2021/06/19 05:21:08;;;;;;;;;;;;;;;24.04;100.00;100589.38;5029324;28;19971;-70
2021/06/19 05:23:34;;;;;;;;;;;;;;;24.09;100.00;100587.88;5012713;28;19956;-70
2021/06/19 05:26:02;;;;;;;;;;;;;;;24.01;100.00;100586.19;5013550;28;19929;-70
2021/06/19 05:28:28;;;;;;;;;;;;;;;24.07;100.00;100588.09;5013854;28;20363;-70
2021/06/19 05:30:54;;;;;;;;;;;;;;;24.21;100.00;100597.22;5014302;28;20008;-71
2021/06/19 05:33:20;;;;;;;;;;;;;;;24.27;100.00;100592.75;5014406;28;19968;-71
2021/06/19 05:35:47;;;;;;;;;;;;;;;24.32;100.00;100591.00;5013358;28;20424;-70
2021/06/19 05:38:13;;;;;;;;;;;;;;;24.64;100.00;100596.66;5011851;28;19926;-71
2021/06/19 05:40:39;;;;;;;;;;;;;;;24.85;100.00;100595.50;5020932;28;20430;-72
2021/06/19 05:43:07;;;;;;;;;;;;;;;24.94;100.00;100603.56;4985883;28;19989;-71
2021/06/19 05:45:33;;;;;;;;;;;;;;;24.94;100.00;100598.00;4993955;28;19958;-71
2021/06/19 05:47:59;;;;;;;;;;;;;;;25.13;100.00;100591.44;5011914;28;19968;-71
2021/06/19 05:50:26;;;;;;;;;;;;;;;25.37;100.00;100594.50;5013332;28;20016;-71
2021/06/19 05:52:52;;;;;;;;;;;;;;;25.43;100.00;100588.06;4995653;28;19965;-69
2021/06/19 05:55:18;;;;;;;;;;;;;;;25.58;100.00;100590.50;4993585;28;19930;-70
2021/06/19 05:57:45;;;;;;;;;;;;;;;25.89;100.00;100600.66;5009469;28;20389;-70
2021/06/19 06:00:13;;;;;;;;;;;;;;;26.16;100.00;100597.66;5028274;28;20021;-71
2021/06/19 06:02:41;;;;;;;;;;;;;;;26.46;100.00;100588.50;4996380;28;19932;-69
2021/06/19 06:05:09;;;;;;;;;;;;;;;26.67;100.00;100594.63;4993149;28;19926;-71
2021/06/19 06:07:35;;;;;;;;;;;;;;;27.05;100.00;100597.13;5007619;28;19925;-72
2021/06/19 06:10:01;;;;;;;;;;;;;;;27.23;96.58;100600.91;5010851;28;19968;-70
2021/06/19 06:12:28;;;;;;;;;;;;;;;27.27;95.84;100598.50;4993024;28;19961;-71
2021/06/19 06:14:54;;;;;;;;;;;;;;;27.68;94.90;100588.44;4998533;28;19973;-70
2021/06/19 06:17:21;;;;;;;;;;;;;;;27.96;91.20;100584.91;4991479;28;19949;-70
2021/06/19 06:19:48;;;;;;;;;;;;;;;28.50;89.51;100586.63;5003617;28;20024;-70
2021/06/19 06:22:14;;;;;;;;;;;;;;;28.91;87.94;100581.06;4996957;28;19965;-70
2021/06/19 06:24:40;;;;;;;;;;;;;;;29.22;85.85;100582.44;4995925;28;19969;-71
2021/06/19 06:27:07;;;;;;;;;;;;;;;29.20;82.07;100579.06;4994784;28;19925;-72
2021/06/19 06:29:34;;;;;;;;;;;;;;;29.53;81.23;100580.19;5000979;28;19926;-71
2021/06/19 06:32:00;;;;;;;;;;;;;;;29.57;80.45;100578.59;4992995;28;20474;-71
2021/06/19 06:34:28;;;;;;;;;;;;;;;29.55;82.19;100590.03;4992652;28;19951;-71
2021/06/19 06:36:54;;;;;;;;;;;;;;;29.74;78.79;100584.16;4992571;28;20368;-72
2021/06/19 06:39:21;;;;;;;;;;;;;;;29.49;80.81;100590.19;4992662;28;20024;-71
2021/06/19 06:41:48;;;;;;;;;;;;;;;29.57;79.65;100587.00;4992333;28;19983;-71
2021/06/19 06:44:14;;;;;;;;;;;;;;;29.85;77.72;100587.97;4996936;28;20453;-71
2021/06/19 06:46:40;;;;;;;;;;;;;;;29.62;77.68;100594.59;4998872;28;19972;-71
2021/06/19 06:49:07;;;;;;;;;;;;;;;29.65;77.35;100582.91;5012060;28;19961;-70
2021/06/19 06:51:37;;;;;;;;;;;;;;;30.18;78.97;100592.66;5002430;28;19926;-70
2021/06/19 06:54:03;;;;;;;;;;;;;;;30.57;75.78;100596.53;4998098;28;19929;-69
2021/06/19 06:56:30;;;;;;;;;;;;;;;30.62;76.15;100596.63;4992493;28;20334;-70
2021/06/19 06:58:56;;;;;;;;;;;;;;;30.83;73.78;100595.72;4992777;28;20346;-70
2021/06/19 07:01:22;;;;;;;;;;;;;;;31.24;70.84;100609.31;4992250;28;20041;-70
2021/06/19 07:03:49;;;;;;;;;;;;;;;31.46;66.48;100600.84;4990712;28;19965;-70
2021/06/19 07:06:16;;;;;;;;;;;;;;;31.65;64.35;100598.50;4991645;28;19926;-70
2021/06/19 07:08:43;;;;;;;;;;;;;;;31.84;65.34;100596.13;4992570;28;19925;-71
2021/06/19 07:11:09;;;;;;;;;;;;;;;31.31;65.20;100606.31;4992419;28;19992;-70
2021/06/19 07:13:36;;;;;;;;;;;;;;;31.61;64.64;100602.94;4992595;28;19926;-69
2021/06/19 07:16:02;;;;;;;;;;;;;;;32.14;63.87;100605.84;4992348;28;20294;-70
2021/06/19 07:18:28;;;;;;;;;;;;;;;32.50;61.70;100597.63;5007202;28;19932;-70
2021/06/19 07:20:55;;;;;;;;;;;;;;;32.38;59.28;100608.25;4992222;28;19927;-70
2021/06/19 07:23:23;;;;;;;;;;;;;;;32.84;59.80;100602.78;4989816;28;19980;-70
2021/06/19 07:25:52;;;;;;;;;;;;;;;33.36;62.06;100597.28;4991176;28;19926;-70
2021/06/19 07:28:18;;;;;;;;;;;;;;;33.24;57.92;100599.50;4989141;28;20020;-70
2021/06/19 07:30:44;;;;;;;;;;;;;;;33.09;57.45;100598.34;4989400;28;20028;-70
2021/06/19 07:33:10;;;;;;;;;;;;;;;33.41;56.27;100593.63;4987056;28;19972;-70
2021/06/19 07:35:37;;;;;;;;;;;;;;;33.90;55.23;100601.50;4989687;28;20356;-70
2021/06/19 07:38:03;;;;;;;;;;;;;;;34.43;52.77;100597.44;4989169;28;19969;-70
2021/06/19 07:40:30;;;;;;;;;;;;;;;33.79;52.28;100603.47;4988841;28;19962;-70
2021/06/19 07:42:57;;;;;;;;;;;;;;;34.27;52.95;100602.25;4988870;28;20389;-70
2021/06/19 07:45:24;;;;;;;;;;;;;;;34.34;53.13;100606.47;4989005;28;19932;-69
2021/06/19 07:47:50;;;;;;;;;;;;;;;34.03;51.94;100603.72;4989716;28;20445;-69
2021/06/19 07:50:16;;;;;;;;;;;;;;;34.28;50.76;100601.94;4990324;28;20016;-69
2021/06/19 07:52:43;;;;;;;;;;;;;;;34.42;50.04;100601.38;4991524;28;20313;-69
2021/06/19 07:55:09;;;;;;;;;;;;;;;35.03;49.72;100601.06;4991605;28;19936;-69
2021/06/19 07:57:35;;;;;;;;;;;;;;;34.98;47.81;100597.44;4991775;28;20455;-68
2021/06/19 08:00:03;;;;;;;;;;;;;;;34.91;45.87;100594.94;4991127;28;19973;-69
2021/06/19 08:02:31;;;;;;;;;;;;;;;34.92;46.01;100588.16;4991612;28;20416;-69
2021/06/19 08:04:57;;;;;;;;;;;;;;;35.15;49.27;100599.84;4991513;28;19926;-69
2021/06/19 08:07:24;;;;;;;;;;;;;;;35.29;43.95;100591.56;4991593;28;20042;-70
2021/06/19 08:09:50;;;;;;;;;;;;;;;35.08;43.39;100590.88;4991920;28;20308;-69
2021/06/19 08:12:17;;;;;;;;;;;;;;;35.02;43.80;100592.88;4991331;28;20013;-69
2021/06/19 08:14:43;;;;;;;;;;;;;;;34.82;45.99;100591.00;4991861;28;20029;-69
2021/06/19 08:17:16;;;;;;;;;;;;;;;35.33;45.37;100593.53;4991216;28;19984;-69
2021/06/19 08:19:44;;;;;;;;;;;;;;;35.28;47.74;100593.56;4991768;28;19948;-69
2021/06/19 08:22:10;;;;;;;;;;;;;;;35.87;46.43;100588.00;4991511;28;19933;-68
2021/06/19 08:24:36;;;;;;;;;;;;;;;36.40;42.88;100591.94;4991631;28;19973;-69
2021/06/19 08:27:03;;;;;;;;;;;;;;;36.82;41.39;100590.25;4991144;28;20365;-69
2021/06/19 08:29:29;;;;;;;;;;;;;;;36.00;40.75;100584.47;4991484;28;19930;-68
2021/06/19 08:31:55;;;;;;;;;;;;;;;36.50;42.58;100591.81;4990425;28;19976;-69
2021/06/19 08:34:23;;;;;;;;;;;;;;;35.73;40.61;100590.63;4991245;28;19973;-69
2021/06/19 08:36:49;;;;;;;;;;;;;;;35.58;42.22;100585.97;4991280;28;19976;-69
2021/06/19 08:39:16;;;;;;;;;;;;;;;36.25;42.12;100592.94;4991511;28;19969;-69
2021/06/19 08:41:47;;;;;;;;;;;;;;;36.63;40.37;100582.56;4991198;28;20182;-69
2021/06/19 08:44:19;;;;;;;;;;;;;;;36.78;39.38;100578.69;4991219;28;19930;-69
2021/06/19 08:46:46;;;;;;;;;;;;;;;37.00;38.35;100589.44;4991042;28;19973;-69
2021/06/19 08:49:12;;;;;;;;;;;;;;;37.29;38.65;100576.22;5006379;28;20389;-69
2021/06/19 08:51:40;;;;;;;;;;;;;;;37.57;36.88;100590.50;4991144;28;20003;-69
2021/06/19 08:54:06;;;;;;;;;;;;;;;37.44;37.86;100587.34;4989993;28;20021;-69
2021/06/19 08:56:33;;;;;;;;;;;;;;;36.31;38.20;100586.09;4991450;28;19926;-70
2021/06/19 08:59:01;;;;;;;;;;;;;;;36.70;38.53;100591.50;4993071;28;19929;-70
2021/06/19 09:01:27;;;;;;;;;;;;;;;37.15;38.54;100587.50;4994898;28;19925;-69
2021/06/19 09:03:54;;;;;;;;;;;;;;;37.18;37.76;100595.38;4994695;28;19996;-69
2021/06/19 09:06:21;;;;;;;;;;;;;;;37.31;35.90;100588.13;4994352;28;20416;-69
2021/06/19 09:09:05;;;;;;;;;;;;;;;37.51;38.72;100586.94;4994708;28;19933;-69
2021/06/19 09:11:32;;;;;;;;;;;;;;;37.75;37.19;100591.59;4994123;28;19930;-68
2021/06/19 09:14:00;;;;;;;;;;;;;;;38.08;35.88;100583.88;4994750;28;19996;-68
2021/06/19 09:16:26;;;;;;;;;;;;;;;37.52;35.98;100577.28;4994113;28;20021;-68
2021/06/19 09:18:52;;;;;;;;;;;;;;;37.87;35.12;100571.28;4993475;28;19984;-69
2021/06/19 09:21:26;;;;;;;;;;;;;;;38.29;35.46;100580.69;4994492;28;20330;-67
2021/06/19 09:23:53;;;;;;;;;;;;;;;37.00;34.78;100577.25;4994475;28;20035;-69
2021/06/19 09:26:21;;;;;;;;;;;;;;;37.26;36.15;100572.03;4994233;28;19973;-69
2021/06/19 09:28:54;;;;;;;;;;;;;;;37.30;36.01;100575.94;4994073;28;19929;-69
2021/06/19 09:31:29;;;;;;;;;;;;;;;37.07;35.94;100572.06;4994339;28;19926;-69
2021/06/19 09:34:00;;;;;;;;;;;;;;;36.85;36.06;100581.16;4994188;28;19926;-69
2021/06/19 09:36:35;;;;;;;;;;;;;;;37.14;35.66;100583.00;4994230;28;19980;-67
2021/06/19 09:39:02;;;;;;;;;;;;;;;37.09;35.11;100575.41;4994056;28;19926;-68
2021/06/19 09:41:35;;;;;;;;;;;;;;;37.74;37.74;100581.44;4994192;28;19933;-68
2021/06/19 09:44:01;;;;;;;;;;;;;;;38.02;34.14;100577.50;4994099;28;19926;-67
2021/06/19 09:46:27;;;;;;;;;;;;;;;38.28;34.12;100570.50;4993356;28;19968;-67
2021/06/19 09:48:55;;;;;;;;;;;;;;;38.49;33.06;100577.41;4993854;28;19976;-67
2021/06/19 09:51:23;;;;;;;;;;;;;;;38.58;31.40;100570.97;4993608;28;19972;-68
2021/06/19 09:53:51;;;;;;;;;;;;;;;38.79;29.96;100580.75;4993807;28;19929;-68
2021/06/19 09:56:18;;;;;;;;;;;;;;;38.44;30.38;100571.84;4993721;28;19941;-67
2021/06/19 09:58:46;;;;;;;;;;;;;;;38.30;30.27;100580.38;4993795;28;20377;-67
2021/06/19 10:01:19;;;;;;;;;;;;;;;37.94;29.94;100574.56;4993926;28;19969;-68
2021/06/19 10:03:56;;;;;;;;;;;;;;;38.45;29.19;100567.03;4993374;28;19926;-68
2021/06/19 10:06:22;;;;;;;;;;;;;;;38.62;28.28;100570.03;4993508;28;20016;-68
2021/06/19 10:08:49;;;;;;;;;;;;;;;38.67;28.68;100569.91;4993110;28;19996;-66
2021/06/19 10:11:16;;;;;;;;;;;;;;;38.99;29.23;100562.41;4993816;28;19956;-67
2021/06/19 10:13:43;;;;;;;;;;;;;;;38.66;29.60;100567.41;4993755;28;20341;-68
2021/06/19 10:16:13;;;;;;;;;;;;;;;38.87;28.23;100562.09;4995274;28;20274;-67
2021/06/19 10:18:39;;;;;;;;;;;;;;;39.35;28.14;100563.50;5013257;28;19991;-65
2021/06/19 10:21:06;;;;;;;;;;;;;;;39.06;27.58;100556.28;4993903;28;19984;-65
2021/06/19 10:23:33;;;;;;;;;;;;;;;39.75;27.41;100555.09;5009851;28;19980;-65
2021/06/19 10:25:59;;;;;;;;;;;;;;;40.27;26.92;100556.50;4993313;28;19976;-65
2021/06/19 10:28:26;;;;;;;;;;;;;;;39.85;25.73;100553.97;4992318;28;20452;-65
2021/06/19 10:30:53;;;;;;;;;;;;;;;38.88;26.44;100549.63;4993566;28;19957;-65
2021/06/19 10:33:28;;;;;;;;;;;;;;;39.32;25.70;100549.97;4992878;28;20024;-65
2021/06/19 10:35:55;;;;;;;;;;;;;;;40.12;27.50;100547.25;4993057;28;19926;-65
2021/06/19 10:38:21;;;;;;;;;;;;;;;40.91;24.62;100552.25;4992796;28;19962;-65
2021/06/19 10:40:51;;;;;;;;;;;;;;;41.22;25.57;100542.72;4992631;28;20389;-65
2021/06/19 10:43:18;;;;;;;;;;;;;;;40.90;23.44;100533.50;5007972;28;19925;-64
2021/06/19 10:45:46;;;;;;;;;;;;;;;40.62;23.98;100534.69;4992695;28;19930;-64
2021/06/19 10:48:13;;;;;;;;;;;;;;;39.88;24.75;100539.13;4992613;28;19926;-64
2021/06/19 10:50:41;;;;;;;;;;;;;;;39.42;25.57;100535.53;4992528;28;20588;-64
2021/06/19 10:53:09;;;;;;;;;;;;;;;39.60;25.13;100539.28;4992524;28;20464;-64
2021/06/19 10:55:36;;;;;;;;;;;;;;;40.13;23.46;100534.72;4992627;28;19933;-64
2021/06/19 10:58:17;;;;;;;;;;;;;;;40.31;22.87;100526.25;4992248;28;20373;-64
2021/06/19 11:00:45;;;;;;;;;;;;;;;40.37;24.54;100524.06;4991475;28;19925;-65
2021/06/19 11:03:12;;;;;;;;;;;;;;;40.43;23.90;100526.41;4992035;28;20500;-65
2021/06/19 11:05:56;;;;;;;;;;;;;;;39.89;24.53;100531.41;4992383;28;19969;-65
2021/06/19 11:08:22;;;;;;;;;;;;;;;39.73;25.50;100529.03;4992171;28;20506;-64
2021/06/19 11:10:53;;;;;;;;;;;;;;;39.53;24.50;100526.72;4992530;28;19926;-65
2021/06/19 11:13:38;;;;;;;;;;;;;;;39.57;23.92;100522.06;5007453;28;20416;-64
2021/06/19 11:16:05;;;;;;;;;;;;;;;39.56;24.53;100517.56;4992239;28;20049;-65
2021/06/19 11:18:50;;;;;;;;;;;;;;;39.91;23.03;100515.72;4992206;28;19932;-64
2021/06/19 11:21:18;;;;;;;;;;;;;;;40.18;23.95;100516.69;4991424;28;20545;-64
2021/06/19 11:24:05;;;;;;;;;;;;;;;40.60;23.82;100521.97;5007381;28;19972;-64
2021/06/19 11:26:49;;;;;;;;;;;;;;;40.56;23.63;100524.63;4988711;28;19930;-64
2021/06/19 11:29:30;;;;;;;;;;;;;;;40.49;22.06;100513.72;4992176;28;19926;-64
2021/06/19 11:31:57;;;;;;;;;;;;;;;41.23;22.11;100510.25;4991755;28;19980;-65
2021/06/19 11:34:39;;;;;;;;;;;;;;;40.82;23.23;100518.13;4992018;28;19930;-65
2021/06/19 11:37:06;;;;;;;;;;;;;;;40.45;22.39;100509.03;4991984;28;20409;-64
2021/06/19 11:39:34;;;;;;;;;;;;;;;40.65;23.14;100507.56;4991806;28;19961;-64
2021/06/19 11:42:01;;;;;;;;;;;;;;;40.48;22.43;100512.06;4991936;28;19965;-64
2021/06/19 11:44:33;;;;;;;;;;;;;;;40.25;22.61;100514.19;4991802;28;19977;-64
2021/06/19 11:47:01;;;;;;;;;;;;;;;40.62;23.13;100508.25;4992117;28;20040;-64
2021/06/19 11:49:42;;;;;;;;;;;;;;;40.12;23.89;100501.78;4991721;28;19926;-64
2021/06/19 11:52:10;;;;;;;;;;;;;;;40.78;25.70;100500.88;4990964;28;19973;-64
2021/06/19 11:54:44;;;;;;;;;;;;;;;40.37;23.90;100492.81;4991609;28;19980;-64
2021/06/19 11:57:12;;;;;;;;;;;;;;;40.77;23.34;100498.38;4991581;28;19984;-65
2021/06/19 11:59:38;;;;;;;;;;;;;;;41.27;23.08;100491.31;4991859;28;19973;-65
2021/06/19 12:02:11;;;;;;;;;;;;;;;42.03;22.08;100497.41;4991045;28;20392;-64
2021/06/19 12:04:37;;;;;;;;;;;;;;;41.29;22.74;100486.97;4991764;28;20393;-64
2021/06/19 12:07:04;;;;;;;;;;;;;;;40.74;23.89;100479.97;4991657;28;19967;-64
2021/06/19 12:09:32;;;;;;;;;;;;;;;40.34;23.06;100480.09;4991697;28;20037;-64
2021/06/19 12:11:59;;;;;;;;;;;;;;;40.64;23.60;100478.31;4991661;28;19980;-64
2021/06/19 12:14:27;;;;;;;;;;;;;;;40.25;23.30;100480.09;4991220;28;19969;-65
2021/06/19 12:16:54;;;;;;;;;;;;;;;39.37;23.83;100481.72;4991831;28;19926;-65
2021/06/19 12:19:22;;;;;;;;;;;;;;;39.20;24.93;100479.63;4991551;28;19934;-63
2021/06/19 12:21:48;;;;;;;;;;;;;;;39.76;25.11;100477.25;4991747;28;20028;-63
2021/06/19 12:24:22;;;;;;;;;;;;;;;40.69;24.19;100482.16;4991546;28;19933;-64
2021/06/19 12:27:04;;;;;;;;;;;;;;;41.34;24.51;100483.09;5006778;28;19980;-63
2021/06/19 12:29:31;;;;;;;;;;;;;;;41.33;23.35;100476.56;4991753;28;19979;-64
2021/06/19 12:31:57;;;;;;;;;;;;;;;40.88;22.27;100476.09;4991398;28;19992;-64
2021/06/19 12:34:26;;;;;;;;;;;;;;;39.90;24.38;100470.63;4995075;28;19934;-65